• Join FlightAware (Why Join?)
  • Login
  • US Flag 
10:54AM EDT


 

Airport Tracker/Info


-or-


 

Live Flight TrackerFlight Track Log ✈ CRK276 ✈ 09-Apr-2013 ✈ ZPPP / KMG - VHHH / HKG

Flight Track Log - Related Links

Times and Time Zones

All times are in EDT time to prevent confusion due to time zone crossing. See the CRK276 flight status page for this flight to view local times or setup timezone preferences in your user account.

Time Position Orientation Groundspeed Altitude Reporting Facility
EDT Latitude Longitude Course Direction KTS MPH feet Rate Location/Type
09:23AM 23.4610 110.3780 102° East 547 629 35,900  Level FlightAware
09:23AM 23.4340 110.5110 102° East 542 624 35,200 -480 Descending FlightAware
09:24AM 23.4040 110.6510 103° East 538 619 35,100 -120 Descending FlightAware
09:25AM 23.3830 110.7530 103° East 537 618 35,100  Level FlightAware
09:26AM 23.3610 110.8560 103° East 537 618 35,100  Level FlightAware
09:26AM 23.3360 110.9750 103° East 537 618 35,100  Level FlightAware
09:27AM 23.3080 111.1060 103° East 538 619 35,100 -240 Level FlightAware
09:28AM 23.2860 111.2110 103° East 536 617 34,800 -720 Descending FlightAware
09:28AM 23.2650 111.3120 103° East 537 618 34,200 -1,020 Descending FlightAware
09:29AM 23.2430 111.4190 103° East 536 617 33,500 -780 Descending FlightAware
09:30AM 23.2160 111.5410 104° East 525 604 33,100 -300 Descending FlightAware
09:31AM 23.1670 111.6220 123° Southeast 456 525 33,100  Level FlightAware
09:31AM 23.1430 111.6400 145° Southeast 426 490 33,100  Level FlightAware
09:31AM 23.0750 111.6470 175° South 346 398 33,100  Level FlightAware
09:32AM 23.0450 111.6210 219° Southwest 302 348 33,100  Level FlightAware
09:32AM 23.0380 111.6030 247° West 294 338 33,100  Level FlightAware
09:32AM 23.0390 111.5830 273° West 292 336 33,100 -240 Level FlightAware
09:33AM 23.0850 111.5350 316° Northwest 336 387 32,900 -360 Descending FlightAware
09:33AM 23.1000 111.5330 353° North 358 412 32,800 -960 Descending FlightAware
09:34AM 23.1670 111.5600 20° North 437 503 32,200 -900 Descending FlightAware
09:35AM 23.2190 111.6700 63° Northeast 478 550 31,500 -720 Descending FlightAware
09:35AM 23.2160 111.7650 92° East 519 597 31,100 -300 Descending FlightAware
09:36AM 23.1910 111.8880 102° East 525 604 31,100  Level FlightAware
09:37AM 23.1700 111.9910 102° East 522 601 31,100  Level FlightAware
09:38AM 23.1500 112.0910 102° East 521 600 31,100  Level FlightAware
09:38AM 23.1240 112.2050 104° East 501 577 31,100  Level FlightAware
09:39AM 23.0880 112.2600 125° Southeast 447 514 31,100  Level FlightAware
09:39AM 23.0450 112.2840 153° Southeast 393 452 31,100  Level FlightAware
09:39AM 23.0270 112.2860 174° South 367 422 31,100  Level FlightAware
09:40AM 22.9950 112.2770 195° South 323 372 31,100  Level FlightAware
09:40AM 22.9740 112.2490 231° Southwest 286 329 31,100  Level FlightAware
09:40AM 22.9720 112.2290 264° West 275 316 31,100  Level FlightAware
09:41AM 22.9760 112.2160 288° West 276 318 31,100  Level FlightAware
09:41AM 23.0110 112.1880 324° Northwest 320 368 31,100  Level FlightAware
09:42AM 23.0810 112.2140 19° North 412 474 31,100  Level FlightAware
09:42AM 23.0970 112.2370 53° Northeast 440 506 31,100  Level FlightAware
09:42AM 23.1090 112.2710 69° East 449 517 31,100  Level FlightAware
09:43AM 23.0950 112.3570 100° East 431 496 31,100  Level FlightAware
09:43AM 23.0790 112.3780 130° Southeast 410 472 31,100  Level FlightAware
09:43AM 23.0540 112.3950 148° Southeast 387 445 31,100  Level FlightAware
09:44AM 23.0230 112.4020 168° South 350 403 31,100  Level FlightAware
09:45AM 22.9420 112.4350 159° South 425 489 31,100  Level FlightAware
09:45AM 22.8910 112.5020 130° Southeast 427 491 31,100  Level FlightAware
09:46AM 22.8420 112.5660 130° Southeast 427 491 31,100  Level FlightAware
09:47AM 22.7850 112.6420 129° Southeast 427 491 31,100  Level FlightAware
09:47AM 22.7340 112.7030 132° Southeast 412 474 31,100  Level FlightAware
09:48AM 22.7080 112.7170 154° Southeast 379 436 31,100 -1,200 Level FlightAware
09:48AM 22.6390 112.7390 164° South 372 428 30,000 -1,440 Descending FlightAware
09:49AM 22.5680 112.7600 165° South 367 422 29,100 -1,440 Descending FlightAware
09:50AM 22.5050 112.7760 167° South 362 417 28,000 -1,800 Descending FlightAware
09:50AM 22.4360 112.7920 168° South 354 407 26,700 -1,980 Descending FlightAware
09:51AM 22.3730 112.8410 144° Southeast 394 453 25,200 -1,440 Descending FlightAware
09:52AM 22.3280 112.9180 122° Southeast 393 452 24,500 -480 Descending FlightAware
09:53AM 22.2960 112.9750 121° Southeast 393 452 24,500  Level FlightAware
09:53AM 22.2550 113.0460 122° Southeast 393 452 24,500  Level FlightAware
09:54AM 22.2220 113.1020 122° Southeast 393 452 24,500  Level FlightAware
09:55AM 22.1890 113.1590 122° Southeast 393 452 24,500  Level FlightAware
09:55AM 22.1560 113.2150 122° Southeast 393 452 24,500 -480 Level FlightAware
09:58AM 22.2152 113.4838 77° East  Level Estimated
09:59AM 22.2441 113.6161 77° East  Level Estimated
10:00AM 22.2729 113.7485 77° East  Level Estimated
10:01AM 22.3016 113.8809 77° East  Level Estimated
10:02AM 22.3089 113.9146 77° East  Level Estimated
10:03AM 22.3089 113.9146 110° East  Level Estimated
10:04AM 22.3089 113.9146 110° East  Level Estimated
10:05AM 22.3089 113.9146 110° East  Level Estimated
10:06AM 22.3089 113.9146 110° East  Level Estimated
10:07AM 22.3089 113.9146 110° East  Level Estimated
10:08AM 22.3089 113.9146 110° East  Level Estimated
10:09AM 22.3089 113.9146 110° East  Level Estimated
10:10AM 22.3089 113.9146 110° East  Level Estimated
10:11AM 22.3089 113.9146 110° East  Level Estimated
10:12AM 22.3089 113.9146 110° East  Level Estimated
10:13AM 22.3089 113.9146 110° East  Level Estimated
10:14AM 22.3089 113.9146 110° East  Level Estimated
10:15AM 22.3089 113.9146 110° East  Level Estimated
10:16AM 22.3089 113.9146 110° East  Level Estimated
10:17AM 22.3089 113.9146 110° East  Level Estimated
10:18AM 22.3089 113.9146 110° East  Level Estimated
10:19AM 22.3089 113.9146 110° East  Level Estimated
10:20AM 22.3089 113.9146 110° East  Level Estimated
10:21AM 22.3089 113.9146 110° East  Level Estimated
10:22AM 22.3089 113.9146 110° East  Level Estimated
10:23AM 22.3089 113.9146 110° East  Level Estimated
10:24AM 22.3089 113.9146 110° East  Level Estimated
10:25AM 22.3089 113.9146 110° East  Level Estimated
10:26AM 22.3089 113.9146 110° East  Level Estimated
10:27AM 22.3089 113.9146 110° East  Level Estimated
10:28AM 22.3089 113.9146 110° East  Level Estimated
10:29AM 22.3089 113.9146 110° East  Level Estimated
10:30AM 22.3089 113.9146 110° East  Level Estimated
10:31AM 22.3089 113.9146 110° East  Level Estimated
10:32AM 22.3089 113.9146 110° East  Level Estimated
10:33AM 22.3089 113.9146 110° East  Level Estimated
10:34AM 22.3089 113.9146 110° East  Level Estimated
10:35AM 22.3089 113.9146 110° East  Level Estimated
10:36AM 22.3089 113.9146 110° East  Level Estimated
10:37AM 22.3089 113.9146 110° East  Level Estimated
10:38AM 22.3089 113.9146 110° East  Level Estimated
10:39AM 22.3089 113.9146 110° East  Level Estimated
10:40AM 22.3089 113.9146 110° East  Level Estimated
10:41AM 22.3089 113.9146 110° East  Level Estimated
10:42AM 22.3089 113.9146 110° East  Level Estimated
10:43AM 22.3089 113.9146 110° East  Level Estimated
10:44AM 22.3089 113.9146 110° East  Level Estimated
10:45AM 22.3089 113.9146 110° East  Level Estimated
10:46AM 22.3089 113.9146 110° East  Level Estimated
10:47AM 22.3089 113.9146 110° East  Level Estimated
10:47AM 22.3000 113.8650 78° East 127 146 600  Level FlightAware
10:47AM 22.3080 113.8870 69° East 125 144 200 -720 Descending FlightAware